sensor_id;sensor_type;location;lat;lon;timestamp;pressure;altitude;pressure_sealevel;temperature;humidity
16613;BME280;8419;52.358;9.752;2023-04-04T00:01:31;102393.00;;;11.64;25.38
16613;BME280;8419;52.358;9.752;2023-04-04T00:04:17;102397.00;;;11.60;25.45
16613;BME280;8419;52.358;9.752;2023-04-04T00:07:02;102390.00;;;11.58;25.50
16613;BME280;8419;52.358;9.752;2023-04-04T00:09:48;102392.00;;;11.53;25.56
16613;BME280;8419;52.358;9.752;2023-04-04T00:12:34;102389.00;;;11.49;25.62
16613;BME280;8419;52.358;9.752;2023-04-04T00:15:20;102391.00;;;11.44;25.71
16613;BME280;8419;52.358;9.752;2023-04-04T00:18:06;102394.00;;;11.40;25.79
16613;BME280;8419;52.358;9.752;2023-04-04T00:20:51;102399.00;;;11.36;25.85
16613;BME280;8419;52.358;9.752;2023-04-04T00:23:37;102397.00;;;11.35;25.90
16613;BME280;8419;52.358;9.752;2023-04-04T00:26:23;102404.00;;;11.33;25.96
16613;BME280;8419;52.358;9.752;2023-04-04T00:29:08;102393.00;;;11.33;25.99
16613;BME280;8419;52.358;9.752;2023-04-04T00:31:53;102398.00;;;11.30;26.07
16613;BME280;8419;52.358;9.752;2023-04-04T00:34:42;102392.00;;;11.28;26.13
16613;BME280;8419;52.358;9.752;2023-04-04T00:37:27;102393.00;;;11.24;26.18
16613;BME280;8419;52.358;9.752;2023-04-04T00:40:13;102392.00;;;11.19;26.25
16613;BME280;8419;52.358;9.752;2023-04-04T00:42:59;102387.00;;;11.19;26.29
16613;BME280;8419;52.358;9.752;2023-04-04T00:45:46;102397.00;;;11.17;26.38
16613;BME280;8419;52.358;9.752;2023-04-04T00:48:32;102392.00;;;11.18;26.41
16613;BME280;8419;52.358;9.752;2023-04-04T00:51:18;102386.00;;;11.17;26.46
16613;BME280;8419;52.358;9.752;2023-04-04T00:54:03;102385.00;;;11.15;26.53
16613;BME280;8419;52.358;9.752;2023-04-04T00:56:51;102388.00;;;11.13;26.59
16613;BME280;8419;52.358;9.752;2023-04-04T00:59:40;102385.00;;;11.12;26.67
16613;BME280;8419;52.358;9.752;2023-04-04T01:02:26;102379.00;;;11.07;26.70
16613;BME280;8419;52.358;9.752;2023-04-04T01:05:11;102385.00;;;11.07;26.72
16613;BME280;8419;52.358;9.752;2023-04-04T01:07:57;102388.00;;;11.01;26.82
16613;BME280;8419;52.358;9.752;2023-04-04T01:10:43;102387.00;;;10.99;26.88
16613;BME280;8419;52.358;9.752;2023-04-04T01:13:28;102388.00;;;10.96;26.95
16613;BME280;8419;52.358;9.752;2023-04-04T01:16:14;102390.00;;;10.94;27.04
16613;BME280;8419;52.358;9.752;2023-04-04T01:18:59;102391.00;;;10.93;27.08
16613;BME280;8419;52.358;9.752;2023-04-04T01:21:46;102385.00;;;10.91;27.14
16613;BME280;8419;52.358;9.752;2023-04-04T01:24:33;102386.00;;;10.88;27.16
16613;BME280;8419;52.358;9.752;2023-04-04T01:27:19;102386.00;;;10.85;27.25
16613;BME280;8419;52.358;9.752;2023-04-04T01:30:08;102388.00;;;10.84;27.27
16613;BME280;8419;52.358;9.752;2023-04-04T01:33:00;102386.00;;;10.83;27.35
16613;BME280;8419;52.358;9.752;2023-04-04T01:35:51;102380.00;;;10.81;27.45
16613;BME280;8419;52.358;9.752;2023-04-04T01:38:52;102372.00;;;10.78;27.50
16613;BME280;8419;52.358;9.752;2023-04-04T01:41:39;102381.00;;;10.77;27.55
16613;BME280;8419;52.358;9.752;2023-04-04T01:44:24;102378.00;;;10.75;27.50
16613;BME280;8419;52.358;9.752;2023-04-04T01:47:12;102378.00;;;10.75;27.56
16613;BME280;8419;52.358;9.752;2023-04-04T01:49:57;102370.00;;;10.72;27.67
16613;BME280;8419;52.358;9.752;2023-04-04T01:52:43;102372.00;;;10.72;27.67
16613;BME280;8419;52.358;9.752;2023-04-04T01:55:28;102364.00;;;10.73;27.72
16613;BME280;8419;52.358;9.752;2023-04-04T01:58:14;102362.00;;;10.69;27.79
16613;BME280;8419;52.358;9.752;2023-04-04T02:01:00;102369.00;;;10.67;27.85
16613;BME280;8419;52.358;9.752;2023-04-04T02:03:45;102364.00;;;10.69;27.86
16613;BME280;8419;52.358;9.752;2023-04-04T02:06:32;102367.00;;;10.69;27.87
16613;BME280;8419;52.358;9.752;2023-04-04T02:09:18;102361.00;;;10.65;27.97
16613;BME280;8419;52.358;9.752;2023-04-04T02:12:04;102354.00;;;10.66;27.98
16613;BME280;8419;52.358;9.752;2023-04-04T02:14:50;102357.00;;;10.56;28.18
16613;BME280;8419;52.358;9.752;2023-04-04T02:17:36;102364.00;;;10.56;28.20
16613;BME280;8419;52.358;9.752;2023-04-04T02:20:21;102357.00;;;10.55;28.22
16613;BME280;8419;52.358;9.752;2023-04-04T02:23:06;102354.00;;;10.50;28.31
16613;BME280;8419;52.358;9.752;2023-04-04T02:25:52;102354.00;;;10.52;28.33
16613;BME280;8419;52.358;9.752;2023-04-04T02:28:38;102358.00;;;10.54;28.32
16613;BME280;8419;52.358;9.752;2023-04-04T02:31:24;102356.00;;;10.53;28.39
16613;BME280;8419;52.358;9.752;2023-04-04T02:34:09;102362.00;;;10.53;28.43
16613;BME280;8419;52.358;9.752;2023-04-04T02:36:55;102353.00;;;10.51;28.45
16613;BME280;8419;52.358;9.752;2023-04-04T02:39:41;102357.00;;;10.50;28.50
16613;BME280;8419;52.358;9.752;2023-04-04T02:42:26;102345.00;;;10.53;28.50
16613;BME280;8419;52.358;9.752;2023-04-04T02:45:11;102344.00;;;10.52;28.57
16613;BME280;8419;52.358;9.752;2023-04-04T02:48:00;102339.00;;;10.52;28.58
16613;BME280;8419;52.358;9.752;2023-04-04T02:50:46;102338.00;;;10.52;28.63
16613;BME280;8419;52.358;9.752;2023-04-04T02:53:31;102338.00;;;10.49;28.70
16613;BME280;8419;52.358;9.752;2023-04-04T02:56:16;102341.00;;;10.50;28.72
16613;BME280;8419;52.358;9.752;2023-04-04T02:59:02;102335.00;;;10.50;28.74
16613;BME280;8419;52.358;9.752;2023-04-04T03:01:48;102338.00;;;10.50;28.82
16613;BME280;8419;52.358;9.752;2023-04-04T03:04:34;102328.00;;;10.49;28.82
16613;BME280;8419;52.358;9.752;2023-04-04T03:07:20;102323.00;;;10.49;28.86
16613;BME280;8419;52.358;9.752;2023-04-04T03:10:10;102318.00;;;10.52;28.88
16613;BME280;8419;52.358;9.752;2023-04-04T03:12:56;102322.00;;;10.50;28.94
16613;BME280;8419;52.358;9.752;2023-04-04T03:15:42;102316.00;;;10.48;29.00
16613;BME280;8419;52.358;9.752;2023-04-04T03:18:28;102313.00;;;10.45;29.04
16613;BME280;8419;52.358;9.752;2023-04-04T03:21:13;102318.00;;;10.46;29.03
16613;BME280;8419;52.358;9.752;2023-04-04T03:23:59;102309.00;;;10.47;29.05
16613;BME280;8419;52.358;9.752;2023-04-04T03:26:44;102311.00;;;10.47;29.10
16613;BME280;8419;52.358;9.752;2023-04-04T03:29:32;102312.00;;;10.47;29.16
16613;BME280;8419;52.358;9.752;2023-04-04T03:32:17;102313.00;;;10.48;29.13
16613;BME280;8419;52.358;9.752;2023-04-04T03:35:10;102302.00;;;10.46;29.17
16613;BME280;8419;52.358;9.752;2023-04-04T03:37:56;102300.00;;;10.48;29.21
16613;BME280;8419;52.358;9.752;2023-04-04T03:40:46;102301.00;;;10.46;29.25
16613;BME280;8419;52.358;9.752;2023-04-04T03:43:31;102297.00;;;10.43;29.29
16613;BME280;8419;52.358;9.752;2023-04-04T03:46:17;102304.00;;;10.44;29.34
16613;BME280;8419;52.358;9.752;2023-04-04T03:49:03;102304.00;;;10.46;29.33
16613;BME280;8419;52.358;9.752;2023-04-04T03:51:49;102305.00;;;10.46;29.37
16613;BME280;8419;52.358;9.752;2023-04-04T03:54:34;102298.00;;;10.47;29.38
16613;BME280;8419;52.358;9.752;2023-04-04T03:57:20;102303.00;;;10.47;29.40
16613;BME280;8419;52.358;9.752;2023-04-04T04:00:07;102293.00;;;10.50;29.37
16613;BME280;8419;52.358;9.752;2023-04-04T04:02:53;102291.00;;;10.52;29.39
16613;BME280;8419;52.358;9.752;2023-04-04T04:05:39;102289.00;;;10.46;29.47
16613;BME280;8419;52.358;9.752;2023-04-04T04:08:24;102283.00;;;10.46;29.45
16613;BME280;8419;52.358;9.752;2023-04-04T04:11:09;102288.00;;;10.44;29.50
16613;BME280;8419;52.358;9.752;2023-04-04T04:13:55;102289.00;;;10.38;29.58
16613;BME280;8419;52.358;9.752;2023-04-04T04:16:41;102288.00;;;10.38;29.61
16613;BME280;8419;52.358;9.752;2023-04-04T04:19:26;102293.00;;;10.39;29.59
16613;BME280;8419;52.358;9.752;2023-04-04T04:22:12;102297.00;;;10.34;29.65
16613;BME280;8419;52.358;9.752;2023-04-04T04:24:57;102295.00;;;10.33;29.67
16613;BME280;8419;52.358;9.752;2023-04-04T04:27:45;102291.00;;;10.31;29.72
16613;BME280;8419;52.358;9.752;2023-04-04T04:30:32;102295.00;;;10.28;29.74
16613;BME280;8419;52.358;9.752;2023-04-04T04:33:18;102297.00;;;10.31;29.73
16613;BME280;8419;52.358;9.752;2023-04-04T04:36:07;102295.00;;;10.30;29.75
16613;BME280;8419;52.358;9.752;2023-04-04T04:38:52;102290.00;;;10.30;29.75
16613;BME280;8419;52.358;9.752;2023-04-04T04:41:38;102293.00;;;10.29;29.83
16613;BME280;8419;52.358;9.752;2023-04-04T04:44:23;102294.00;;;10.31;29.83
16613;BME280;8419;52.358;9.752;2023-04-04T04:47:09;102298.00;;;10.34;29.85
16613;BME280;8419;52.358;9.752;2023-04-04T04:49:54;102289.00;;;10.31;29.90
16613;BME280;8419;52.358;9.752;2023-04-04T04:52:40;102294.00;;;10.32;29.92
16613;BME280;8419;52.358;9.752;2023-04-04T04:55:25;102298.00;;;10.32;29.94
16613;BME280;8419;52.358;9.752;2023-04-04T04:58:11;102300.00;;;10.33;29.96
16613;BME280;8419;52.358;9.752;2023-04-04T05:00:56;102293.00;;;10.32;29.99
16613;BME280;8419;52.358;9.752;2023-04-04T05:03:41;102298.00;;;10.31;30.01
16613;BME280;8419;52.358;9.752;2023-04-04T05:06:27;102293.00;;;10.35;29.98
16613;BME280;8419;52.358;9.752;2023-04-04T05:09:12;102293.00;;;10.35;30.00
16613;BME280;8419;52.358;9.752;2023-04-04T05:11:58;102291.00;;;10.29;30.09
16613;BME280;8419;52.358;9.752;2023-04-04T05:14:43;102306.00;;;10.33;30.06
16613;BME280;8419;52.358;9.752;2023-04-04T05:17:29;102302.00;;;10.34;30.07
16613;BME280;8419;52.358;9.752;2023-04-04T05:20:14;102309.00;;;10.39;30.03
16613;BME280;8419;52.358;9.752;2023-04-04T05:23:00;102308.00;;;10.33;30.12
16613;BME280;8419;52.358;9.752;2023-04-04T05:25:48;102311.00;;;10.44;30.09
16613;BME280;8419;52.358;9.752;2023-04-04T05:28:34;102320.00;;;10.43;30.12
16613;BME280;8419;52.358;9.752;2023-04-04T05:31:19;102316.00;;;10.50;30.08
16613;BME280;8419;52.358;9.752;2023-04-04T05:34:05;102320.00;;;10.51;30.11
16613;BME280;8419;52.358;9.752;2023-04-04T05:36:52;102322.00;;;10.61;30.04
16613;BME280;8419;52.358;9.752;2023-04-04T05:39:37;102324.00;;;10.57;30.10
16613;BME280;8419;52.358;9.752;2023-04-04T05:42:23;102330.00;;;10.56;30.16
16613;BME280;8419;52.358;9.752;2023-04-04T05:45:10;102325.00;;;10.59;30.18
16613;BME280;8419;52.358;9.752;2023-04-04T05:47:55;102326.00;;;10.58;30.26
16613;BME280;8419;52.358;9.752;2023-04-04T05:50:44;102327.00;;;10.62;30.23
16613;BME280;8419;52.358;9.752;2023-04-04T05:53:29;102331.00;;;10.68;30.22
16613;BME280;8419;52.358;9.752;2023-04-04T05:56:15;102330.00;;;10.66;30.25
16613;BME280;8419;52.358;9.752;2023-04-04T05:59:01;102327.00;;;10.70;30.26
16613;BME280;8419;52.358;9.752;2023-04-04T06:01:48;102332.00;;;10.79;30.21
16613;BME280;8419;52.358;9.752;2023-04-04T06:04:33;102341.00;;;10.81;30.24
16613;BME280;8419;52.358;9.752;2023-04-04T06:07:18;102333.00;;;10.86;30.18
16613;BME280;8419;52.358;9.752;2023-04-04T06:10:06;102342.00;;;11.00;30.03
16613;BME280;8419;52.358;9.752;2023-04-04T06:12:51;102337.00;;;10.99;30.09
16613;BME280;8419;52.358;9.752;2023-04-04T06:15:37;102346.00;;;10.99;30.12
16613;BME280;8419;52.358;9.752;2023-04-04T06:18:22;102333.00;;;11.11;30.01
16613;BME280;8419;52.358;9.752;2023-04-04T06:21:07;102340.00;;;11.10;30.08
16613;BME280;8419;52.358;9.752;2023-04-04T06:23:53;102339.00;;;11.17;30.01
16613;BME280;8419;52.358;9.752;2023-04-04T06:26:38;102333.00;;;11.17;30.07
16613;BME280;8419;52.358;9.752;2023-04-04T06:29:23;102345.00;;;11.25;30.04
16613;BME280;8419;52.358;9.752;2023-04-04T06:32:09;102346.00;;;11.30;30.03
16613;BME280;8419;52.358;9.752;2023-04-04T06:34:56;102340.00;;;11.39;30.00
16613;BME280;8419;52.358;9.752;2023-04-04T06:37:41;102347.00;;;11.45;30.00
16613;BME280;8419;52.358;9.752;2023-04-04T06:40:27;102345.00;;;11.48;29.99
16613;BME280;8419;52.358;9.752;2023-04-04T06:43:12;102346.00;;;11.51;29.97
16613;BME280;8419;52.358;9.752;2023-04-04T06:45:59;102353.00;;;11.59;29.91
16613;BME280;8419;52.358;9.752;2023-04-04T06:48:44;102351.00;;;11.55;29.96
16613;BME280;8419;52.358;9.752;2023-04-04T06:51:31;102338.00;;;11.59;29.97
16613;BME280;8419;52.358;9.752;2023-04-04T06:54:17;102343.00;;;11.59;30.00
16613;BME280;8419;52.358;9.752;2023-04-04T06:57:03;102345.00;;;11.63;29.99
16613;BME280;8419;52.358;9.752;2023-04-04T06:59:48;102343.00;;;11.63;30.02
16613;BME280;8419;52.358;9.752;2023-04-04T07:02:34;102345.00;;;11.65;30.03
16613;BME280;8419;52.358;9.752;2023-04-04T07:05:21;102352.00;;;11.68;30.00
16613;BME280;8419;52.358;9.752;2023-04-04T07:08:06;102352.00;;;11.71;29.98
16613;BME280;8419;52.358;9.752;2023-04-04T07:10:55;102354.00;;;11.72;29.98
16613;BME280;8419;52.358;9.752;2023-04-04T07:13:40;102353.00;;;11.78;29.99
16613;BME280;8419;52.358;9.752;2023-04-04T07:16:27;102357.00;;;11.80;29.99
16613;BME280;8419;52.358;9.752;2023-04-04T07:19:12;102358.00;;;11.87;29.93
16613;BME280;8419;52.358;9.752;2023-04-04T07:21:57;102356.00;;;11.95;29.84
16613;BME280;8419;52.358;9.752;2023-04-04T07:24:43;102354.00;;;11.98;29.83
16613;BME280;8419;52.358;9.752;2023-04-04T07:27:28;102357.00;;;12.03;29.81
16613;BME280;8419;52.358;9.752;2023-04-04T07:30:15;102362.00;;;12.05;29.86
16613;BME280;8419;52.358;9.752;2023-04-04T07:33:02;102365.00;;;12.09;29.84
16613;BME280;8419;52.358;9.752;2023-04-04T07:35:49;102364.00;;;12.18;29.74
16613;BME280;8419;52.358;9.752;2023-04-04T07:38:35;102362.00;;;12.29;29.63
16613;BME280;8419;52.358;9.752;2023-04-04T07:41:21;102362.00;;;12.36;29.57
16613;BME280;8419;52.358;9.752;2023-04-04T07:44:07;102360.00;;;12.39;29.56
16613;BME280;8419;52.358;9.752;2023-04-04T07:46:52;102357.00;;;12.42;29.52
16613;BME280;8419;52.358;9.752;2023-04-04T07:49:37;102354.00;;;12.48;29.47
16613;BME280;8419;52.358;9.752;2023-04-04T07:52:23;102354.00;;;12.54;29.41
16613;BME280;8419;52.358;9.752;2023-04-04T07:55:09;102360.00;;;12.60;29.34
16613;BME280;8419;52.358;9.752;2023-04-04T07:57:54;102358.00;;;12.69;29.27
16613;BME280;8419;52.358;9.752;2023-04-04T08:00:42;102353.00;;;12.80;29.14
16613;BME280;8419;52.358;9.752;2023-04-04T08:03:27;102353.00;;;12.89;29.02
16613;BME280;8419;52.358;9.752;2023-04-04T08:06:13;102344.00;;;12.98;28.90
16613;BME280;8419;52.358;9.752;2023-04-04T08:08:58;102346.00;;;13.04;28.85
16613;BME280;8419;52.358;9.752;2023-04-04T08:11:43;102347.00;;;13.12;28.77
16613;BME280;8419;52.358;9.752;2023-04-04T08:14:29;102346.00;;;13.22;28.63
16613;BME280;8419;52.358;9.752;2023-04-04T08:17:15;102347.00;;;13.26;28.53
16613;BME280;8419;52.358;9.752;2023-04-04T08:20:03;102348.00;;;13.31;28.45
16613;BME280;8419;52.358;9.752;2023-04-04T08:22:49;102337.00;;;13.37;28.35
16613;BME280;8419;52.358;9.752;2023-04-04T08:25:35;102341.00;;;13.43;28.28
16613;BME280;8419;52.358;9.752;2023-04-04T08:28:20;102328.00;;;13.49;28.14
16613;BME280;8419;52.358;9.752;2023-04-04T08:31:06;102338.00;;;13.61;27.95
16613;BME280;8419;52.358;9.752;2023-04-04T08:33:52;102334.00;;;13.71;27.77
16613;BME280;8419;52.358;9.752;2023-04-04T08:36:37;102331.00;;;13.79;27.57
16613;BME280;8419;52.358;9.752;2023-04-04T08:39:23;102332.00;;;13.83;27.37
16613;BME280;8419;52.358;9.752;2023-04-04T08:42:08;102329.00;;;13.88;27.15
16613;BME280;8419;52.358;9.752;2023-04-04T08:44:57;102327.00;;;14.01;26.91
16613;BME280;8419;52.358;9.752;2023-04-04T08:47:47;102333.00;;;14.08;26.80
16613;BME280;8419;52.358;9.752;2023-04-04T08:50:36;102333.00;;;14.18;26.58
16613;BME280;8419;52.358;9.752;2023-04-04T08:53:21;102332.00;;;14.23;26.36
16613;BME280;8419;52.358;9.752;2023-04-04T08:56:07;102330.00;;;14.21;26.32
16613;BME280;8419;52.358;9.752;2023-04-04T08:58:52;102323.00;;;14.30;26.21
16613;BME280;8419;52.358;9.752;2023-04-04T09:01:37;102330.00;;;14.36;26.17
16613;BME280;8419;52.358;9.752;2023-04-04T09:04:23;102329.00;;;14.43;26.09
16613;BME280;8419;52.358;9.752;2023-04-04T09:07:10;102326.00;;;14.52;25.92
16613;BME280;8419;52.358;9.752;2023-04-04T09:09:57;102324.00;;;14.55;25.77
16613;BME280;8419;52.358;9.752;2023-04-04T09:12:45;102322.00;;;14.54;25.70
16613;BME280;8419;52.358;9.752;2023-04-04T09:15:32;102325.00;;;14.57;25.56
16613;BME280;8419;52.358;9.752;2023-04-04T09:18:18;102317.00;;;14.62;25.53
16613;BME280;8419;52.358;9.752;2023-04-04T09:21:08;102312.00;;;14.67;25.45
16613;BME280;8419;52.358;9.752;2023-04-04T09:24:00;102315.00;;;14.75;25.31
16613;BME280;8419;52.358;9.752;2023-04-04T09:26:50;102321.00;;;14.83;25.26
16613;BME280;8419;52.358;9.752;2023-04-04T09:29:39;102310.00;;;14.97;25.13
16613;BME280;8419;52.358;9.752;2023-04-04T09:32:25;102314.00;;;15.03;25.06
16613;BME280;8419;52.358;9.752;2023-04-04T09:35:14;102307.00;;;15.05;25.07
16613;BME280;8419;52.358;9.752;2023-04-04T09:38:00;102307.00;;;15.15;24.97
16613;BME280;8419;52.358;9.752;2023-04-04T09:40:46;102309.00;;;15.26;24.81
16613;BME280;8419;52.358;9.752;2023-04-04T09:43:33;102310.00;;;15.37;24.67
16613;BME280;8419;52.358;9.752;2023-04-04T09:46:19;102310.00;;;15.47;24.51
16613;BME280;8419;52.358;9.752;2023-04-04T09:49:04;102308.00;;;15.55;24.34
16613;BME280;8419;52.358;9.752;2023-04-04T09:51:54;102306.00;;;15.57;24.23
16613;BME280;8419;52.358;9.752;2023-04-04T09:54:39;102300.00;;;15.55;24.03
16613;BME280;8419;52.358;9.752;2023-04-04T09:57:26;102308.00;;;15.49;24.06
16613;BME280;8419;52.358;9.752;2023-04-04T10:00:18;102309.00;;;15.54;23.93
16613;BME280;8419;52.358;9.752;2023-04-04T10:03:05;102309.00;;;15.59;23.78
16613;BME280;8419;52.358;9.752;2023-04-04T10:05:55;102304.00;;;15.65;23.68
16613;BME280;8419;52.358;9.752;2023-04-04T10:08:43;102304.00;;;15.68;23.59
16613;BME280;8419;52.358;9.752;2023-04-04T10:11:29;102313.00;;;15.75;23.49
16613;BME280;8419;52.358;9.752;2023-04-04T10:14:15;102311.00;;;15.74;23.37
16613;BME280;8419;52.358;9.752;2023-04-04T10:17:06;102298.00;;;15.77;23.37
16613;BME280;8419;52.358;9.752;2023-04-04T10:19:53;102295.00;;;15.79;23.26
16613;BME280;8419;52.358;9.752;2023-04-04T10:22:39;102295.00;;;15.75;23.30
16613;BME280;8419;52.358;9.752;2023-04-04T10:25:24;102301.00;;;15.88;23.18
16613;BME280;8419;52.358;9.752;2023-04-04T10:28:10;102295.00;;;15.97;23.06
16613;BME280;8419;52.358;9.752;2023-04-04T10:31:02;102289.00;;;16.02;22.89
16613;BME280;8419;52.358;9.752;2023-04-04T10:33:59;102297.00;;;16.08;22.81
16613;BME280;8419;52.358;9.752;2023-04-04T10:36:50;102286.00;;;16.12;22.72
16613;BME280;8419;52.358;9.752;2023-04-04T10:39:43;102288.00;;;16.28;22.67
16613;BME280;8419;52.358;9.752;2023-04-04T10:42:37;102288.00;;;16.40;22.48
16613;BME280;8419;52.358;9.752;2023-04-04T10:45:23;102275.00;;;16.48;22.45
16613;BME280;8419;52.358;9.752;2023-04-04T10:48:09;102278.00;;;16.53;22.46
16613;BME280;8419;52.358;9.752;2023-04-04T10:50:55;102281.00;;;16.70;22.30
16613;BME280;8419;52.358;9.752;2023-04-04T10:53:41;102278.00;;;16.78;22.22
16613;BME280;8419;52.358;9.752;2023-04-04T10:56:27;102271.00;;;16.91;22.07
16613;BME280;8419;52.358;9.752;2023-04-04T10:59:15;102269.00;;;16.99;22.03
16613;BME280;8419;52.358;9.752;2023-04-04T11:02:02;102262.00;;;17.05;21.99
16613;BME280;8419;52.358;9.752;2023-04-04T11:04:47;102251.00;;;17.12;21.87
16613;BME280;8419;52.358;9.752;2023-04-04T11:07:35;102249.00;;;17.11;21.95
16613;BME280;8419;52.358;9.752;2023-04-04T11:10:27;102261.00;;;17.28;21.87
16613;BME280;8419;52.358;9.752;2023-04-04T11:13:17;102251.00;;;17.44;21.65
16613;BME280;8419;52.358;9.752;2023-04-04T11:16:05;102248.00;;;17.44;21.63
16613;BME280;8419;52.358;9.752;2023-04-04T11:18:51;102241.00;;;17.41;21.49
16613;BME280;8419;52.358;9.752;2023-04-04T11:21:37;102235.00;;;17.40;21.49
16613;BME280;8419;52.358;9.752;2023-04-04T11:24:23;102228.00;;;17.49;21.44
16613;BME280;8419;52.358;9.752;2023-04-04T11:27:11;102231.00;;;17.60;21.38
16613;BME280;8419;52.358;9.752;2023-04-04T11:29:57;102216.00;;;17.73;21.28
16613;BME280;8419;52.358;9.752;2023-04-04T11:32:44;102226.00;;;17.92;20.99
16613;BME280;8419;52.358;9.752;2023-04-04T11:35:31;102228.00;;;17.93;20.99
16613;BME280;8419;52.358;9.752;2023-04-04T11:38:19;102220.00;;;18.18;20.87
16613;BME280;8419;52.358;9.752;2023-04-04T11:41:04;102217.00;;;18.40;20.77
16613;BME280;8419;52.358;9.752;2023-04-04T11:43:52;102212.00;;;18.89;20.44
16613;BME280;8419;52.358;9.752;2023-04-04T11:46:37;102212.00;;;19.28;20.20
16613;BME280;8419;52.358;9.752;2023-04-04T11:49:29;102206.00;;;19.70;19.94
16613;BME280;8419;52.358;9.752;2023-04-04T11:52:19;102207.00;;;20.12;19.64
16613;BME280;8419;52.358;9.752;2023-04-04T11:55:15;102200.00;;;20.35;19.09
16613;BME280;8419;52.358;9.752;2023-04-04T11:58:11;102199.00;;;20.12;18.89
16613;BME280;8419;52.358;9.752;2023-04-04T12:00:57;102205.00;;;20.24;18.96
16613;BME280;8419;52.358;9.752;2023-04-04T12:03:43;102197.00;;;20.30;18.82
16613;BME280;8419;52.358;9.752;2023-04-04T12:06:29;102192.00;;;20.58;18.73
16613;BME280;8419;52.358;9.752;2023-04-04T12:09:17;102187.00;;;20.90;18.46
16613;BME280;8419;52.358;9.752;2023-04-04T12:12:05;102191.00;;;21.12;18.38
16613;BME280;8419;52.358;9.752;2023-04-04T12:14:53;102182.00;;;21.38;18.29
16613;BME280;8419;52.358;9.752;2023-04-04T12:17:39;102188.00;;;21.70;18.15
16613;BME280;8419;52.358;9.752;2023-04-04T12:20:24;102176.00;;;22.03;17.96
16613;BME280;8419;52.358;9.752;2023-04-04T12:23:13;102171.00;;;22.24;17.82
16613;BME280;8419;52.358;9.752;2023-04-04T12:25:58;102162.00;;;22.42;17.70
16613;BME280;8419;52.358;9.752;2023-04-04T12:28:47;102161.00;;;22.80;17.51
16613;BME280;8419;52.358;9.752;2023-04-04T12:31:33;102163.00;;;23.24;17.25
16613;BME280;8419;52.358;9.752;2023-04-04T12:34:22;102159.00;;;23.69;16.98
16613;BME280;8419;52.358;9.752;2023-04-04T12:37:09;102152.00;;;24.29;16.58
16613;BME280;8419;52.358;9.752;2023-04-04T12:39:55;102144.00;;;24.82;16.26
16613;BME280;8419;52.358;9.752;2023-04-04T12:42:41;102143.00;;;25.15;16.03
16613;BME280;8419;52.358;9.752;2023-04-04T12:45:27;102151.00;;;25.50;15.82
16613;BME280;8419;52.358;9.752;2023-04-04T12:48:14;102140.00;;;25.87;15.61
16613;BME280;8419;52.358;9.752;2023-04-04T12:51:02;102145.00;;;26.00;15.46
16613;BME280;8419;52.358;9.752;2023-04-04T12:53:52;102139.00;;;26.32;15.29
16613;BME280;8419;52.358;9.752;2023-04-04T12:56:38;102133.00;;;26.51;15.08
16613;BME280;8419;52.358;9.752;2023-04-04T12:59:28;102135.00;;;26.69;15.00
16613;BME280;8419;52.358;9.752;2023-04-04T13:02:16;102128.00;;;26.97;14.78
16613;BME280;8419;52.358;9.752;2023-04-04T13:05:03;102114.00;;;27.24;14.56
16613;BME280;8419;52.358;9.752;2023-04-04T13:08:03;102121.00;;;27.34;14.48
16613;BME280;8419;52.358;9.752;2023-04-04T13:11:00;102117.00;;;27.19;14.52
16613;BME280;8419;52.358;9.752;2023-04-04T13:13:58;102092.00;;;26.98;14.37
16613;BME280;8419;52.358;9.752;2023-04-04T13:16:44;102103.00;;;26.74;14.57
16613;BME280;8419;52.358;9.752;2023-04-04T13:19:45;102097.00;;;27.17;14.24
16613;BME280;8419;52.358;9.752;2023-04-04T13:22:34;102097.00;;;27.23;14.20
16613;BME280;8419;52.358;9.752;2023-04-04T13:25:20;102103.00;;;27.56;13.98
16613;BME280;8419;52.358;9.752;2023-04-04T13:28:06;102089.00;;;27.54;13.88
16613;BME280;8419;52.358;9.752;2023-04-04T13:30:52;102082.00;;;26.93;14.15
16613;BME280;8419;52.358;9.752;2023-04-04T13:33:37;102074.00;;;26.20;14.56
16613;BME280;8419;52.358;9.752;2023-04-04T13:36:23;102077.00;;;25.54;14.89
16613;BME280;8419;52.358;9.752;2023-04-04T13:39:10;102082.00;;;25.19;15.06
16613;BME280;8419;52.358;9.752;2023-04-04T13:41:55;102071.00;;;25.09;15.05
16613;BME280;8419;52.358;9.752;2023-04-04T13:44:41;102059.00;;;24.89;15.11
16613;BME280;8419;52.358;9.752;2023-04-04T13:47:26;102067.00;;;25.39;14.75
16613;BME280;8419;52.358;9.752;2023-04-04T13:50:12;102059.00;;;26.14;14.23
16613;BME280;8419;52.358;9.752;2023-04-04T13:52:58;102050.00;;;26.70;13.91
16613;BME280;8419;52.358;9.752;2023-04-04T13:55:43;102041.00;;;27.22;13.64
16613;BME280;8419;52.358;9.752;2023-04-04T13:58:30;102045.00;;;26.94;13.71
16613;BME280;8419;52.358;9.752;2023-04-04T14:01:15;102037.00;;;26.33;14.04
16613;BME280;8419;52.358;9.752;2023-04-04T14:04:01;102034.00;;;25.75;14.35
16613;BME280;8419;52.358;9.752;2023-04-04T14:06:47;102035.00;;;25.35;14.53
16613;BME280;8419;52.358;9.752;2023-04-04T14:09:33;102030.00;;;25.23;14.58
16613;BME280;8419;52.358;9.752;2023-04-04T14:12:19;102031.00;;;25.49;14.37
16613;BME280;8419;52.358;9.752;2023-04-04T14:15:06;102023.00;;;25.96;14.04
16613;BME280;8419;52.358;9.752;2023-04-04T14:17:52;102016.00;;;26.46;13.76
16613;BME280;8419;52.358;9.752;2023-04-04T14:20:37;102015.00;;;27.33;13.25
16613;BME280;8419;52.358;9.752;2023-04-04T14:23:23;102020.00;;;27.78;13.00
16613;BME280;8419;52.358;9.752;2023-04-04T14:26:08;102021.00;;;27.78;12.92
16613;BME280;8419;52.358;9.752;2023-04-04T14:28:54;102017.00;;;27.11;13.25
16613;BME280;8419;52.358;9.752;2023-04-04T14:31:39;102014.00;;;26.10;13.64
16613;BME280;8419;52.358;9.752;2023-04-04T14:34:25;102009.00;;;25.44;13.97
16613;BME280;8419;52.358;9.752;2023-04-04T14:37:11;102018.00;;;25.71;13.87
16613;BME280;8419;52.358;9.752;2023-04-04T14:39:57;102012.00;;;25.93;13.74
16613;BME280;8419;52.358;9.752;2023-04-04T14:42:43;102009.00;;;25.61;13.93